Zwettl Stadt, Austria
Current Conditions -  °F | °C
As of 4:50 PM on Thursday 30 Oct 2014 (Local Time) from LOXT Reporting Station
Broken Clouds Broken Clouds  
Wind Chill: 48°   Ceiling: 4100
Heat Index: 48°   Visibility: 4mi
Dew Point: 43°   Wind: 0mph
Humidity: 82%   Direction: NA
Pressure: 30.3"   Gusts: NA
Location:  48.62°N, 15.17°E
Report Text: LOXT 301450Z 00000KT 7000 BKN041SC 09/06 Q1026 NOSIG RMK OVC
Loading
Personal Weather Stations






























Interactive Weather Map
Tropical Storm Tracking
New forecast layout! Learn more

10-Day Weather Forecast

Advertisements
Track Severe Weather on mobile